Etusivu
METAR-TAF:

METAR-TAF

Lentoasemat :

Regional_Airport

Clinton, Oklahoma, Yhdysvallat

Leveyspiiri: 35-32-17N, Pituuspiiri: 098-55-17W, korkeus merenpinnasta: 492 m

Tämänhetkinen sää

Tämä raportti tehtiin 19 minuuttia sitten, kello 22.35 UTC
Tuuli 11 kn kaakosta
Lämpötila 25°C
Kosteus 74%
Ilmanpaine 1013 hPa
Näkyvyys: 16.1 km
Hajanaisia pilviä 3100 ft:n korkeudessa
Hajanaisia pilviä 4300 ft:n korkeudessa
Hajonneita pilviä 9000 ft:n korkeudessa

METAR: KCLK 252235Z AUTO 14011KT 10SM SCT031 SCT043 BKN090 25/20 A2990 RMK AO2 LTG DSNT SW THRU NW

Aika: 17:54 (22:54 UTC)


TAF: puuttuu

Säähavainnot ja -ennusteet yli 4000 lentoasemalta (METAR- ja TAF-raportit).

Käytössä olevat sääasemat on merkitty karttaan keltaisilla ja punaisilla pisteillä.

Aseta hiiri pisteen päälle nähdäksesi sääaseman nimen.

Klikkaa sitten nähdäksesi säähavainnot ja -ennusteet.

Kartan vaihtaminen: klikkaa mustalla rastilla varustettuja vihreitä pisteitä, niin voit zoomata sisään; viivalla varustettua vihreää pistettä, niin voit zoomata ulos tai vihreitä nuolia, niin pääset viereisille kartoille.


METAR-TAF: